createdAt,value
2023-02-01T00:00:36.196Z,4.08
2023-02-01T00:01:36.161Z,4.13
2023-02-01T00:02:36.301Z,4.19
2023-02-01T00:03:36.283Z,4.13
2023-02-01T00:04:36.137Z,4.04
2023-02-01T00:05:36.122Z,4.17
2023-02-01T00:06:36.121Z,4.12
2023-02-01T00:07:36.088Z,4.12
2023-02-01T00:08:36.120Z,4.14
2023-02-01T00:09:36.103Z,4.17
2023-02-01T00:10:36.059Z,4.16
2023-02-01T00:11:36.050Z,4.19
2023-02-01T00:12:36.035Z,4.17
2023-02-01T00:13:36.022Z,4.16
2023-02-01T00:14:36.072Z,4.19
2023-02-01T00:15:36.079Z,4.19
2023-02-01T00:16:35.990Z,4.20
2023-02-01T00:17:35.979Z,4.17
2023-02-01T00:18:35.974Z,4.13
2023-02-01T00:19:35.964Z,4.14
2023-02-01T00:20:36.039Z,4.10
2023-02-01T00:21:35.942Z,4.08
2023-02-01T00:22:35.987Z,4.12
2023-02-01T00:23:35.936Z,4.12
2023-02-01T00:24:35.922Z,4.06
2023-02-01T00:25:35.887Z,4.10
2023-02-01T00:26:36.095Z,4.13
2023-02-01T00:27:35.875Z,4.08
2023-02-01T00:28:35.876Z,4.16
2023-02-01T00:29:35.852Z,4.14
2023-02-01T00:30:35.913Z,4.10
2023-02-01T00:31:35.908Z,4.16
2023-02-01T00:32:35.845Z,4.05
2023-02-01T00:33:35.807Z,4.05
2023-02-01T00:34:35.813Z,4.06
2023-02-01T00:35:35.796Z,4.06
2023-02-01T00:36:35.769Z,4.05
2023-02-01T00:37:35.770Z,4.10
2023-02-01T00:38:35.785Z,4.05
2023-02-01T00:39:35.746Z,4.04
2023-02-01T00:40:35.731Z,4.04
2023-02-01T00:41:35.723Z,4.06
2023-02-01T00:42:35.731Z,4.04
2023-02-01T00:43:35.721Z,4.04
2023-02-01T00:44:35.791Z,3.98
2023-02-01T00:45:35.670Z,4.01
2023-02-01T00:46:35.687Z,4.02
2023-02-01T00:47:35.707Z,4.08
2023-02-01T00:48:35.637Z,4.08
2023-02-01T00:49:35.622Z,4.04
2023-02-01T00:50:35.653Z,4.02
2023-02-01T00:51:35.599Z,3.98
2023-02-01T00:52:35.615Z,4.02
2023-02-01T00:53:35.579Z,3.96
2023-02-01T00:54:35.604Z,4.04
2023-02-01T00:55:35.557Z,4.01
2023-02-01T00:56:35.578Z,3.95
2023-02-01T00:57:35.538Z,4.02
2023-02-01T00:58:35.520Z,4.01
2023-02-01T00:59:35.518Z,4.04
2023-02-01T01:00:35.538Z,4.02
2023-02-01T01:01:35.490Z,4.02
2023-02-01T01:02:35.609Z,4.02
2023-02-01T01:03:35.485Z,3.99
2023-02-01T01:04:35.474Z,4.04
2023-02-01T01:05:35.441Z,4.05
2023-02-01T01:06:35.467Z,4.02
2023-02-01T01:07:35.421Z,4.02
2023-02-01T01:08:35.441Z,3.99
2023-02-01T01:09:35.404Z,4.01
2023-02-01T01:10:35.385Z,4.02
2023-02-01T01:11:35.473Z,3.98
2023-02-01T01:12:35.369Z,4.05
2023-02-01T01:13:35.379Z,4.04
2023-02-01T01:14:35.392Z,3.92
2023-02-01T01:15:35.382Z,4.02
2023-02-01T01:16:43.136Z,4.01
2023-02-01T01:17:35.308Z,3.98
2023-02-01T01:18:35.353Z,4.01
2023-02-01T01:19:35.320Z,4.02
2023-02-01T01:20:35.299Z,3.99
2023-02-01T01:21:35.258Z,4.04
2023-02-01T01:22:35.381Z,3.96
2023-02-01T01:23:35.249Z,4.01
2023-02-01T01:24:35.250Z,4.02
2023-02-01T01:25:35.227Z,4.04
2023-02-01T01:26:35.314Z,3.99
2023-02-01T01:27:35.256Z,4.01
2023-02-01T01:28:35.184Z,4.04
2023-02-01T01:29:35.177Z,3.99
2023-02-01T01:30:35.199Z,4.17
2023-02-01T01:31:35.208Z,4.05
2023-02-01T01:32:35.157Z,4.10
2023-02-01T01:33:35.163Z,4.12
2023-02-01T01:34:35.127Z,4.06
2023-02-01T01:35:35.135Z,4.16
2023-02-01T01:36:35.097Z,4.17
2023-02-01T01:37:35.080Z,4.22
2023-02-01T01:38:35.087Z,4.16
2023-02-01T01:39:35.059Z,4.22
2023-02-01T01:40:35.055Z,4.17
2023-02-01T01:41:35.041Z,4.20
2023-02-01T01:42:35.025Z,4.20
2023-02-01T01:43:35.044Z,4.26
2023-02-01T01:44:35.030Z,4.20
2023-02-01T01:45:34.997Z,4.26
2023-02-01T01:46:35.057Z,4.28
2023-02-01T01:47:34.970Z,4.34
2023-02-01T01:48:35.061Z,4.31
2023-02-01T01:49:34.949Z,4.34
2023-02-01T01:50:34.966Z,4.30
2023-02-01T01:51:34.960Z,4.31
2023-02-01T01:52:34.942Z,4.38
2023-02-01T01:53:34.899Z,4.37
2023-02-01T01:54:34.897Z,4.40
2023-02-01T01:55:34.880Z,4.35
2023-02-01T01:56:34.917Z,4.40
2023-02-01T01:57:34.861Z,4.30
2023-02-01T01:58:34.844Z,4.30
2023-02-01T01:59:34.841Z,4.41
2023-02-01T02:00:34.869Z,4.35
2023-02-01T02:01:34.832Z,4.37
2023-02-01T02:02:34.820Z,4.40
2023-02-01T02:03:34.792Z,4.41
2023-02-01T02:04:34.791Z,4.38
2023-02-01T02:05:34.768Z,4.34
2023-02-01T02:06:34.759Z,4.38
2023-02-01T02:08:34.768Z,4.38
2023-02-01T02:09:34.731Z,4.37
2023-02-01T02:10:34.716Z,4.35
2023-02-01T02:11:34.722Z,4.37
2023-02-01T02:12:34.694Z,4.35
2023-02-01T02:13:34.695Z,4.34
2023-02-01T02:14:34.713Z,4.31
2023-02-01T02:15:34.672Z,4.34
2023-02-01T02:16:34.751Z,4.35
2023-02-01T02:17:34.632Z,4.32
2023-02-01T02:18:34.628Z,4.41
2023-02-01T02:19:34.639Z,4.34
2023-02-01T02:20:34.646Z,4.32
2023-02-01T02:21:34.591Z,4.37
2023-02-01T02:22:34.594Z,4.41
2023-02-01T02:23:34.664Z,4.42
2023-02-01T02:24:34.554Z,4.37
2023-02-01T02:25:34.551Z,4.40
2023-02-01T02:26:34.661Z,4.41
2023-02-01T02:27:34.532Z,4.38
2023-02-01T02:28:34.521Z,4.40
2023-02-01T02:29:34.511Z,4.42
2023-02-01T02:30:34.565Z,4.38
2023-02-01T02:31:34.565Z,4.35
2023-02-01T02:32:34.525Z,4.30
2023-02-01T02:33:34.476Z,4.41
2023-02-01T02:34:34.448Z,4.40
2023-02-01T02:35:34.459Z,4.41
2023-02-01T02:36:34.428Z,4.30
2023-02-01T02:37:34.431Z,4.34
2023-02-01T02:38:34.442Z,4.35
2023-02-01T02:39:34.530Z,4.40
2023-02-01T02:40:34.413Z,4.40
2023-02-01T02:41:34.441Z,4.40
2023-02-01T02:42:34.366Z,4.42
2023-02-01T02:43:34.378Z,4.44
2023-02-01T02:44:34.369Z,4.49
2023-02-01T02:45:34.524Z,4.40
2023-02-01T02:46:34.323Z,4.49
2023-02-01T02:47:34.309Z,4.40
2023-02-01T02:48:34.315Z,4.41
2023-02-01T02:49:34.292Z,4.34
2023-02-01T02:50:34.410Z,4.42
2023-02-01T02:51:34.272Z,4.40
2023-02-01T02:52:34.260Z,4.41
2023-02-01T02:53:34.248Z,4.35
2023-02-01T02:54:34.256Z,4.38
2023-02-01T02:55:34.246Z,4.40
2023-02-01T02:56:34.241Z,4.40
2023-02-01T02:57:34.265Z,4.40
2023-02-01T02:58:34.180Z,4.40
2023-02-01T02:59:34.195Z,4.48
2023-02-01T03:00:34.178Z,4.35
2023-02-01T03:01:34.155Z,4.32
2023-02-01T03:02:34.250Z,4.35
2023-02-01T03:03:34.225Z,4.34
2023-02-01T03:04:34.132Z,4.41
2023-02-01T03:05:34.187Z,4.35
2023-02-01T03:06:34.098Z,4.35
2023-02-01T03:07:34.089Z,4.31
2023-02-01T03:08:34.136Z,4.40
2023-02-01T03:09:34.069Z,4.31
2023-02-01T03:10:34.119Z,4.13
2023-02-01T03:11:34.059Z,4.20
2023-02-01T03:12:34.025Z,4.14
2023-02-01T03:13:34.025Z,4.12
2023-02-01T03:14:34.016Z,4.16
2023-02-01T03:15:34.020Z,4.05
2023-02-01T03:16:34.094Z,4.01
2023-02-01T03:17:34.018Z,4.05
2023-02-01T03:18:33.966Z,4.04
2023-02-01T03:19:34.048Z,4.05
2023-02-01T03:20:33.974Z,4.01
2023-02-01T03:21:33.933Z,3.88
2023-02-01T03:22:33.916Z,3.98
2023-02-01T03:23:33.938Z,3.84
2023-02-01T03:24:33.922Z,3.87
2023-02-01T03:25:33.900Z,3.81
2023-02-01T03:26:33.941Z,3.91
2023-02-01T03:27:33.919Z,3.87
2023-02-01T03:28:33.855Z,3.86
2023-02-01T03:29:33.840Z,3.86
2023-02-01T03:30:33.955Z,3.81
2023-02-01T03:31:33.891Z,3.88
2023-02-01T03:32:33.854Z,3.91
2023-02-01T03:33:33.799Z,3.87
2023-02-01T03:34:33.799Z,3.86
2023-02-01T03:35:33.776Z,3.80
2023-02-01T03:36:33.761Z,3.87
2023-02-01T03:37:33.782Z,3.88
2023-02-01T03:38:33.763Z,3.84
2023-02-01T03:39:33.823Z,3.87
2023-02-01T03:40:33.719Z,3.86
2023-02-01T03:41:33.707Z,3.86
2023-02-01T03:42:33.702Z,3.84
2023-02-01T03:43:33.715Z,3.80
2023-02-01T03:44:33.746Z,3.81
2023-02-01T03:45:33.752Z,3.84
2023-02-01T03:46:33.671Z,3.86
2023-02-01T03:47:33.678Z,3.83
2023-02-01T03:48:33.624Z,3.83
2023-02-01T03:49:33.620Z,3.84
2023-02-01T03:50:33.628Z,3.86
2023-02-01T03:51:33.680Z,3.83
2023-02-01T03:52:33.584Z,3.91
2023-02-01T03:53:33.567Z,3.78
2023-02-01T03:54:33.575Z,3.80
2023-02-01T03:55:33.563Z,3.84
2023-02-01T03:56:33.587Z,3.74
2023-02-01T03:57:33.527Z,3.83
2023-02-01T03:58:33.512Z,3.73
2023-02-01T03:59:33.545Z,3.78
2023-02-01T04:00:33.487Z,3.73
2023-02-01T04:01:33.580Z,3.84
2023-02-01T04:02:33.597Z,3.80
2023-02-01T04:03:33.473Z,3.80
2023-02-01T04:04:33.450Z,3.76
2023-02-01T04:05:33.468Z,3.78
2023-02-01T04:06:33.433Z,3.78
2023-02-01T04:07:33.438Z,3.73
2023-02-01T04:08:33.437Z,3.80
2023-02-01T04:09:33.420Z,3.76
2023-02-01T04:10:33.387Z,3.86
2023-02-01T04:11:33.387Z,3.83
2023-02-01T04:12:33.351Z,3.83
2023-02-01T04:13:33.373Z,3.88
2023-02-01T04:14:33.378Z,3.87
2023-02-01T04:15:33.389Z,3.81
2023-02-01T04:16:33.439Z,3.88
2023-02-01T04:17:33.300Z,3.91
2023-02-01T04:18:33.290Z,3.83
2023-02-01T04:19:33.278Z,3.86
2023-02-01T04:20:33.298Z,3.84
2023-02-01T04:21:33.253Z,3.94
2023-02-01T04:22:33.243Z,3.91
2023-02-01T04:23:33.233Z,3.92
2023-02-01T04:24:33.269Z,3.94
2023-02-01T04:25:33.313Z,4.02
2023-02-01T04:26:33.290Z,3.99
2023-02-01T04:27:33.192Z,3.98
2023-02-01T04:28:33.189Z,4.05
2023-02-01T04:29:33.165Z,4.02
2023-02-01T04:30:33.313Z,4.01
2023-02-01T04:31:33.304Z,3.95
2023-02-01T04:32:33.200Z,4.02
2023-02-01T04:33:33.120Z,4.05
2023-02-01T04:34:33.133Z,3.95
2023-02-01T04:35:33.091Z,4.01
2023-02-01T04:36:33.105Z,3.95
2023-02-01T04:37:33.078Z,4.04
2023-02-01T04:38:33.084Z,4.02
2023-02-01T04:39:33.052Z,4.02
2023-02-01T04:40:33.061Z,3.95
2023-02-01T04:41:33.037Z,3.98
2023-02-01T04:42:33.024Z,4.06
2023-02-01T04:43:33.030Z,3.95
2023-02-01T04:44:33.027Z,4.01
2023-02-01T04:45:32.984Z,3.95
2023-02-01T04:46:33.127Z,3.96
2023-02-01T04:47:32.992Z,3.96
2023-02-01T04:48:32.961Z,4.01
2023-02-01T04:49:32.944Z,4.05
2023-02-01T04:50:32.945Z,4.02
2023-02-01T04:51:32.933Z,4.01
2023-02-01T04:52:32.940Z,4.04
2023-02-01T04:53:32.901Z,4.08
2023-02-01T04:54:32.920Z,4.05
2023-02-01T04:55:32.871Z,3.92
2023-02-01T04:56:32.883Z,3.99
2023-02-01T04:57:32.847Z,4.10
2023-02-01T04:58:32.863Z,4.05
2023-02-01T04:59:32.827Z,4.04
2023-02-01T05:00:32.826Z,4.05
2023-02-01T05:01:32.934Z,4.04
2023-02-01T05:02:32.821Z,4.05
2023-02-01T05:03:32.814Z,4.01
2023-02-01T05:04:32.789Z,4.02
2023-02-01T05:05:32.782Z,4.04
2023-02-01T05:06:32.746Z,4.06
2023-02-01T05:07:32.737Z,4.04
2023-02-01T05:08:32.751Z,4.12
2023-02-01T05:09:32.717Z,4.02
2023-02-01T05:10:32.709Z,4.10
2023-02-01T05:11:32.704Z,4.05
2023-02-01T05:12:32.719Z,4.06
2023-02-01T05:13:32.775Z,4.06
2023-02-01T05:14:32.686Z,4.06
2023-02-01T05:15:32.679Z,4.06
2023-02-01T05:16:32.641Z,4.01
2023-02-01T05:17:32.647Z,4.12
2023-02-01T05:18:32.631Z,4.08
2023-02-01T05:19:32.680Z,4.08
2023-02-01T05:20:32.625Z,4.06
2023-02-01T05:21:32.589Z,4.10
2023-02-01T05:22:32.573Z,4.04
2023-02-01T05:23:32.553Z,4.05
2023-02-01T05:24:32.571Z,4.12
2023-02-01T05:25:32.539Z,4.06
2023-02-01T05:26:32.586Z,4.14
2023-02-01T05:27:32.511Z,4.13
2023-02-01T05:28:32.503Z,4.06
2023-02-01T05:29:32.500Z,4.12
2023-02-01T05:30:32.590Z,4.05
2023-02-01T05:31:32.651Z,4.10
2023-02-01T05:32:32.540Z,4.05
2023-02-01T05:33:32.451Z,4.08
2023-02-01T05:34:32.437Z,4.10
2023-02-01T05:35:32.559Z,4.05
2023-02-01T05:36:32.416Z,4.08
2023-02-01T05:37:32.403Z,4.01
2023-02-01T05:38:32.449Z,4.12
2023-02-01T05:39:32.389Z,4.02
2023-02-01T05:40:32.434Z,4.10
2023-02-01T05:41:32.364Z,4.04
2023-02-01T05:42:32.374Z,4.04
2023-02-01T05:43:32.339Z,4.05
2023-02-01T05:44:32.381Z,3.99
2023-02-01T05:45:32.319Z,4.04
2023-02-01T05:46:32.398Z,3.98
2023-02-01T05:47:32.290Z,3.92
2023-02-01T05:48:32.280Z,3.87
2023-02-01T05:49:32.289Z,3.83
2023-02-01T05:50:32.309Z,3.88
2023-02-01T05:51:32.290Z,3.87
2023-02-01T05:52:32.239Z,3.77
2023-02-01T05:53:32.250Z,3.81
2023-02-01T05:54:32.213Z,3.66
2023-02-01T05:55:32.200Z,3.66
2023-02-01T05:56:32.222Z,3.68
2023-02-01T05:57:32.183Z,3.73
2023-02-01T05:58:32.168Z,3.62
2023-02-01T05:59:32.160Z,3.59
2023-02-01T06:00:32.146Z,3.66
2023-02-01T06:01:32.171Z,3.59
2023-02-01T06:02:32.218Z,3.60
2023-02-01T06:03:32.145Z,3.66
2023-02-01T06:04:32.128Z,3.63
2023-02-01T06:05:32.085Z,3.62
2023-02-01T06:06:32.081Z,3.69
2023-02-01T06:07:32.109Z,3.73
2023-02-01T06:08:32.074Z,3.60
2023-02-01T06:09:32.041Z,3.70
2023-02-01T06:10:32.040Z,3.74
2023-02-01T06:11:33.048Z,3.70
2023-02-01T06:12:32.014Z,3.74
2023-02-01T06:13:34.285Z,3.76
2023-02-01T06:14:32.031Z,3.69
2023-02-01T06:15:31.979Z,3.68
2023-02-01T06:16:31.979Z,3.66
2023-02-01T06:17:31.952Z,3.69
2023-02-01T06:18:32.045Z,3.73
2023-02-01T06:19:31.929Z,3.68
2023-02-01T06:20:31.953Z,3.77
2023-02-01T06:21:31.905Z,3.65
2023-02-01T06:22:31.954Z,3.65
2023-02-01T06:23:31.954Z,3.69
2023-02-01T06:24:31.874Z,3.62
2023-02-01T06:25:31.884Z,3.58
2023-02-01T06:26:31.941Z,3.63
2023-02-01T06:27:31.837Z,3.58
2023-02-01T06:28:31.838Z,3.62
2023-02-01T06:29:31.856Z,3.60
2023-02-01T06:30:31.843Z,3.68
2023-02-01T06:31:31.925Z,3.62
2023-02-01T06:32:31.836Z,3.66
2023-02-01T06:33:31.787Z,3.65
2023-02-01T06:34:31.767Z,3.68
2023-02-01T06:35:32.754Z,3.70
2023-02-01T06:36:31.742Z,3.68
2023-02-01T06:37:31.728Z,3.70
2023-02-01T06:38:31.938Z,3.70
2023-02-01T06:39:31.727Z,3.66
2023-02-01T06:40:31.699Z,3.86
2023-02-01T06:41:31.687Z,3.87
2023-02-01T06:42:32.182Z,3.86
2023-02-01T06:43:31.662Z,3.86
2023-02-01T06:44:31.694Z,3.81
2023-02-01T06:45:31.669Z,3.94
2023-02-01T06:46:32.241Z,3.99
2023-02-01T06:47:31.622Z,3.95
2023-02-01T06:48:31.602Z,3.96
2023-02-01T06:49:31.613Z,4.01
2023-02-01T06:50:31.604Z,4.01
2023-02-01T06:51:31.580Z,3.94
2023-02-01T06:52:31.568Z,3.95
2023-02-01T06:53:32.234Z,3.94
2023-02-01T06:54:31.545Z,3.96
2023-02-01T06:55:31.567Z,4.04
2023-02-01T06:56:31.592Z,3.99
2023-02-01T06:57:32.519Z,3.99
2023-02-01T06:58:31.545Z,4.05
2023-02-01T06:59:31.495Z,3.99
2023-02-01T07:00:31.635Z,4.05
2023-02-01T07:01:32.206Z,4.06
2023-02-01T07:02:31.513Z,3.99
2023-02-01T07:03:32.316Z,4.08
2023-02-01T07:04:31.434Z,4.06
2023-02-01T07:05:31.420Z,4.10
2023-02-01T07:06:31.418Z,4.08
2023-02-01T07:07:31.399Z,4.08
2023-02-01T07:08:31.417Z,4.12
2023-02-01T07:09:31.377Z,4.12
2023-02-01T07:10:31.392Z,4.08
2023-02-01T07:11:31.376Z,4.05
2023-02-01T07:12:31.340Z,4.13
2023-02-01T07:13:31.329Z,4.16
2023-02-01T07:14:31.381Z,4.17
2023-02-01T07:15:31.317Z,4.19
2023-02-01T07:16:31.346Z,4.30
2023-02-01T07:17:31.299Z,4.17
2023-02-01T07:18:31.275Z,4.14
2023-02-01T07:19:31.258Z,4.13
2023-02-01T07:20:31.292Z,4.16
2023-02-01T07:21:31.251Z,4.08
2023-02-01T07:22:31.248Z,4.05
2023-02-01T07:23:31.274Z,4.01
2023-02-01T07:24:31.201Z,3.96
2023-02-01T07:25:31.202Z,4.02
2023-02-01T07:26:31.264Z,3.96
2023-02-01T07:27:31.208Z,4.01
2023-02-01T07:28:31.165Z,4.02
2023-02-01T07:29:31.142Z,4.04
2023-02-01T07:30:31.143Z,4.04
2023-02-01T07:31:31.119Z,3.92
2023-02-01T07:32:31.243Z,3.96
2023-02-01T07:33:31.106Z,3.88
2023-02-01T07:34:31.129Z,4.04
2023-02-01T07:35:31.095Z,4.01
2023-02-01T07:36:31.066Z,3.94
2023-02-01T07:37:31.061Z,4.01
2023-02-01T07:38:31.099Z,4.04
2023-02-01T07:39:31.033Z,4.04
2023-02-01T07:40:31.023Z,4.01
2023-02-01T07:41:31.020Z,4.02
2023-02-01T07:42:31.812Z,4.04
2023-02-01T07:43:31.024Z,3.99
2023-02-01T07:44:31.012Z,3.99
2023-02-01T07:45:31.105Z,4.02
2023-02-01T07:46:31.048Z,4.05
2023-02-01T07:47:31.046Z,4.08
2023-02-01T07:48:30.938Z,4.10
2023-02-01T07:49:30.927Z,4.13
2023-02-01T07:50:31.061Z,4.20
2023-02-01T07:51:30.913Z,4.17
2023-02-01T07:52:30.896Z,4.26
2023-02-01T07:53:30.905Z,4.40
2023-02-01T07:54:30.963Z,4.40
2023-02-01T07:55:31.062Z,4.42
2023-02-01T07:56:31.184Z,4.60
2023-02-01T07:57:30.990Z,4.77
2023-02-01T07:58:30.835Z,4.84
2023-02-01T07:59:30.863Z,4.97
2023-02-01T08:00:30.830Z,5.12
2023-02-01T08:01:30.798Z,5.21
2023-02-01T08:02:30.914Z,5.39
2023-02-01T08:03:30.797Z,5.47
2023-02-01T08:04:30.754Z,5.46
2023-02-01T08:05:30.748Z,5.47
2023-02-01T08:06:30.734Z,5.54
2023-02-01T08:07:31.751Z,5.50
2023-02-01T08:08:30.800Z,5.47
2023-02-01T08:09:30.698Z,5.53
2023-02-01T08:10:30.695Z,5.51
2023-02-01T08:11:30.686Z,5.54
2023-02-01T08:12:30.662Z,5.54
2023-02-01T08:13:30.686Z,5.68
2023-02-01T08:14:30.676Z,5.82
2023-02-01T08:15:30.693Z,5.98
2023-02-01T08:16:30.790Z,6.08
2023-02-01T08:17:30.606Z,6.16
2023-02-01T08:18:30.604Z,6.17
2023-02-01T08:19:30.582Z,6.20
2023-02-01T08:20:30.624Z,6.19
2023-02-01T08:21:30.608Z,6.35
2023-02-01T08:22:30.554Z,6.28
2023-02-01T08:23:30.544Z,6.31
2023-02-01T08:24:30.620Z,6.38
2023-02-01T08:25:30.525Z,6.38
2023-02-01T08:26:30.657Z,6.35
2023-02-01T08:27:30.499Z,6.38
2023-02-01T08:28:30.487Z,6.26
2023-02-01T08:29:30.475Z,6.24
2023-02-01T08:30:30.465Z,6.20
2023-02-01T08:31:30.565Z,6.12
2023-02-01T08:32:30.510Z,6.19
2023-02-01T08:33:30.423Z,6.22
2023-02-01T08:34:30.418Z,6.14
2023-02-01T08:35:42.322Z,6.07
2023-02-01T08:36:31.413Z,6.14
2023-02-01T08:37:30.378Z,6.14
2023-02-01T08:38:30.422Z,6.16
2023-02-01T08:39:30.360Z,6.26
2023-02-01T08:40:30.350Z,6.33
2023-02-01T08:41:31.307Z,6.31
2023-02-01T08:42:30.333Z,6.39
2023-02-01T08:43:30.428Z,6.41
2023-02-01T08:44:30.443Z,6.42
2023-02-01T08:45:30.295Z,6.41
2023-02-01T08:46:30.356Z,6.39
2023-02-01T08:47:30.419Z,6.42
2023-02-01T08:48:30.452Z,6.44
2023-02-01T08:49:30.280Z,6.46
2023-02-01T08:50:30.299Z,6.46
2023-02-01T08:51:30.251Z,6.54
2023-02-01T08:52:30.204Z,6.57
2023-02-01T08:53:30.204Z,6.57
2023-02-01T08:54:30.188Z,6.64
2023-02-01T08:55:30.177Z,6.77
2023-02-01T08:56:30.352Z,6.87
2023-02-01T08:57:30.157Z,6.97
2023-02-01T08:58:30.142Z,7.03
2023-02-01T08:59:30.440Z,7.11
2023-02-01T09:00:30.748Z,7.13
2023-02-01T09:01:30.190Z,7.17
2023-02-01T09:02:30.119Z,7.24
2023-02-01T09:03:30.104Z,7.31
2023-02-01T09:04:30.083Z,7.28
2023-02-01T09:05:44.017Z,7.33
2023-02-01T09:06:31.302Z,7.20
2023-02-01T09:07:30.048Z,7.29
2023-02-01T09:08:30.254Z,7.24
2023-02-01T09:09:30.047Z,7.39
2023-02-01T09:10:35.304Z,7.38
2023-02-01T09:11:31.156Z,7.39
2023-02-01T09:12:30.056Z,7.33
2023-02-01T09:13:30.004Z,7.36
2023-02-01T09:14:29.997Z,7.43
2023-02-01T09:15:29.987Z,7.50
2023-02-01T09:16:29.958Z,7.50
2023-02-01T09:17:29.970Z,7.67
2023-02-01T09:18:29.917Z,7.66
2023-02-01T09:19:29.950Z,7.63
2023-02-01T09:20:29.949Z,7.70
2023-02-01T09:21:29.878Z,7.76
2023-02-01T09:22:29.882Z,7.73
2023-02-01T09:23:29.853Z,7.83
2023-02-01T09:24:29.865Z,7.79
2023-02-01T09:25:29.850Z,7.87
2023-02-01T09:26:32.435Z,7.88
2023-02-01T09:27:29.804Z,7.83
2023-02-01T09:28:29.804Z,7.88
2023-02-01T09:29:29.812Z,7.90
2023-02-01T09:30:31.336Z,8.00
2023-02-01T09:31:30.016Z,7.95
2023-02-01T09:32:30.049Z,8.03
2023-02-01T09:33:29.854Z,8.06
2023-02-01T09:34:29.858Z,8.12
2023-02-01T09:35:30.442Z,8.16
2023-02-01T09:36:31.224Z,8.23
2023-02-01T09:37:29.738Z,8.20
2023-02-01T09:38:29.928Z,8.28
2023-02-01T09:39:29.800Z,8.37
2023-02-01T09:40:29.702Z,8.38
2023-02-01T09:41:29.747Z,8.52
2023-02-01T09:42:31.060Z,8.51
2023-02-01T09:43:29.806Z,8.52
2023-02-01T09:44:35.649Z,8.52
2023-02-01T09:45:30.610Z,8.56
2023-02-01T09:46:29.710Z,8.71
2023-02-01T09:47:29.763Z,8.82
2023-02-01T09:48:31.113Z,8.79
2023-02-01T09:49:29.566Z,8.81
2023-02-01T09:50:29.727Z,8.78
2023-02-01T09:51:29.680Z,8.79
2023-02-01T09:52:29.561Z,8.78
2023-02-01T09:54:45.179Z,8.79
2023-02-01T09:55:44.898Z,8.66
2023-02-01T09:59:54.973Z,8.66
2023-02-01T10:00:53.958Z,8.53
2023-02-01T10:01:53.948Z,8.53
2023-02-01T10:03:02.051Z,8.61
2023-02-01T10:03:54.208Z,8.61
2023-02-01T10:07:15.629Z,8.71
2023-02-01T10:08:15.311Z,8.70
2023-02-01T10:09:15.315Z,8.66
2023-02-01T10:10:15.295Z,8.64
2023-02-01T10:11:15.337Z,8.74
2023-02-01T10:12:15.345Z,8.79
2023-02-01T10:13:15.344Z,8.89
2023-02-01T10:14:15.256Z,9.04
2023-02-01T10:15:15.220Z,9.08
2023-02-01T10:16:15.345Z,9.19
2023-02-01T10:17:15.243Z,9.25
2023-02-01T10:18:15.297Z,9.19
2023-02-01T10:19:15.226Z,9.26
2023-02-01T10:20:15.194Z,9.28
2023-02-01T10:21:15.223Z,9.34
2023-02-01T10:22:15.170Z,9.36
2023-02-01T10:23:32.573Z,9.46
2023-02-01T10:24:18.343Z,9.46
2023-02-01T10:25:15.101Z,9.41
2023-02-01T10:26:15.236Z,9.50
2023-02-01T10:27:15.098Z,9.54
2023-02-01T10:28:15.078Z,9.62
2023-02-01T10:29:15.084Z,9.47
2023-02-01T10:30:15.322Z,9.54
2023-02-01T10:31:15.311Z,9.46
2023-02-01T10:32:15.136Z,9.43
2023-02-01T10:33:15.053Z,9.47
2023-02-01T10:34:15.008Z,9.40
2023-02-01T10:35:15.108Z,9.39
2023-02-01T10:36:15.010Z,9.39
2023-02-01T10:37:15.097Z,9.36
2023-02-01T10:38:15.085Z,9.32
2023-02-01T10:39:15.096Z,9.31
2023-02-01T10:40:15.032Z,9.36
2023-02-01T10:41:15.002Z,9.39
2023-02-01T10:42:15.229Z,9.34
2023-02-01T10:43:15.043Z,9.46
2023-02-01T10:44:14.945Z,9.55
2023-02-01T10:45:14.881Z,9.55
2023-02-01T10:46:14.947Z,9.59
2023-02-01T10:47:15.089Z,9.66
2023-02-01T10:48:15.073Z,9.72
2023-02-01T10:49:14.852Z,9.65
2023-02-01T10:50:14.845Z,9.56
2023-02-01T10:51:14.815Z,9.68
2023-02-01T10:52:15.544Z,9.74
2023-02-01T10:53:15.534Z,9.76
2023-02-01T10:54:14.837Z,9.72
2023-02-01T10:55:14.795Z,9.72
2023-02-01T10:56:14.761Z,9.69
2023-02-01T10:57:14.759Z,9.76
2023-02-01T10:58:14.735Z,9.76
2023-02-01T10:59:14.724Z,9.79
2023-02-01T11:00:14.735Z,9.74
2023-02-01T11:01:14.707Z,9.80
2023-02-01T11:02:14.733Z,9.87
2023-02-01T11:03:14.748Z,9.92
2023-02-01T11:04:14.759Z,10.01
2023-02-01T11:05:14.663Z,9.89
2023-02-01T11:06:14.675Z,9.95
2023-02-01T11:07:14.670Z,9.83
2023-02-01T11:08:14.622Z,9.79
2023-02-01T11:09:14.612Z,9.80
2023-02-01T11:10:14.597Z,9.89
2023-02-01T11:11:14.667Z,9.92
2023-02-01T11:12:15.386Z,9.86
2023-02-01T11:13:14.571Z,9.89
2023-02-01T11:14:14.550Z,9.82
2023-02-01T11:15:14.550Z,9.80
2023-02-01T11:16:14.581Z,9.77
2023-02-01T11:17:14.514Z,9.74
2023-02-01T11:18:14.624Z,9.74
2023-02-01T11:19:14.498Z,9.54
2023-02-01T11:20:14.495Z,9.48
2023-02-01T11:21:14.479Z,9.47
2023-02-01T11:22:14.465Z,9.48
2023-02-01T11:23:14.458Z,9.50
2023-02-01T11:24:15.652Z,9.41
2023-02-01T11:25:14.464Z,9.34
2023-02-01T11:26:14.424Z,9.28
2023-02-01T11:27:18.971Z,9.34
2023-02-01T11:28:15.397Z,9.32
2023-02-01T11:29:14.390Z,9.29
2023-02-01T11:30:14.406Z,9.28
2023-02-01T11:31:14.402Z,9.28
2023-02-01T11:32:14.379Z,9.29
2023-02-01T11:33:14.343Z,9.23
2023-02-01T11:34:14.701Z,9.22
2023-02-01T11:35:14.988Z,9.16
2023-02-01T11:36:14.336Z,9.23
2023-02-01T11:37:14.302Z,9.21
2023-02-01T11:38:15.296Z,9.25
2023-02-01T11:39:14.381Z,9.32
2023-02-01T11:40:14.950Z,9.34
2023-02-01T11:41:14.273Z,9.34
2023-02-01T11:42:14.455Z,9.32
2023-02-01T11:43:14.256Z,9.28
2023-02-01T11:44:14.259Z,9.19
2023-02-01T11:45:14.220Z,9.25
2023-02-01T11:46:14.235Z,9.11
2023-02-01T11:47:14.199Z,9.03
2023-02-01T11:48:21.521Z,9.02
2023-02-01T11:49:15.172Z,8.95
2023-02-01T11:50:14.142Z,8.92
2023-02-01T11:51:14.462Z,8.89
2023-02-01T11:52:14.130Z,8.89
2023-02-01T11:53:14.134Z,9.00
2023-02-01T11:54:14.141Z,9.06
2023-02-01T11:55:14.125Z,9.00
2023-02-01T11:56:14.120Z,9.02
2023-02-01T11:57:14.130Z,9.02
2023-02-01T11:58:14.093Z,9.03
2023-02-01T11:59:14.268Z,9.10
2023-02-01T12:00:14.057Z,9.10
2023-02-01T12:01:14.028Z,9.19
2023-02-01T12:02:14.088Z,9.25
2023-02-01T12:03:14.049Z,9.26
2023-02-01T12:04:14.001Z,9.28
2023-02-01T12:05:14.010Z,9.28
2023-02-01T12:06:14.021Z,9.29
2023-02-01T12:07:14.008Z,9.29
2023-02-01T12:08:13.946Z,9.28
2023-02-01T12:09:13.939Z,9.29
2023-02-01T12:10:13.930Z,9.29
2023-02-01T12:11:13.907Z,9.34
2023-02-01T12:12:13.940Z,9.29
2023-02-01T12:13:13.883Z,9.34
2023-02-01T12:14:13.876Z,9.36
2023-02-01T12:15:13.903Z,9.34
2023-02-01T12:16:13.969Z,9.32
2023-02-01T12:17:13.843Z,9.36
2023-02-01T12:18:13.852Z,9.39
2023-02-01T12:19:13.848Z,9.37
2023-02-01T12:20:13.831Z,9.43
2023-02-01T12:21:13.797Z,9.54
2023-02-01T12:22:13.783Z,9.48
2023-02-01T12:23:13.775Z,9.47
2023-02-01T12:24:14.087Z,9.58
2023-02-01T12:25:13.752Z,9.61
2023-02-01T12:26:13.761Z,9.64
2023-02-01T12:27:13.730Z,9.61
2023-02-01T12:28:13.801Z,9.48
2023-02-01T12:29:13.701Z,9.59
2023-02-01T12:30:13.728Z,9.47
2023-02-01T12:31:13.713Z,9.54
2023-02-01T12:32:13.751Z,9.54
2023-02-01T12:33:13.661Z,9.46
2023-02-01T12:34:13.693Z,9.44
2023-02-01T12:35:13.645Z,9.44
2023-02-01T12:36:13.856Z,9.46
2023-02-01T12:37:13.641Z,9.36
2023-02-01T12:38:13.628Z,9.46
2023-02-01T12:39:13.662Z,9.40
2023-02-01T12:40:13.588Z,9.31
2023-02-01T12:41:13.575Z,9.36
2023-02-01T12:42:13.591Z,9.44
2023-02-01T12:43:13.560Z,9.50
2023-02-01T12:44:13.534Z,9.43
2023-02-01T12:45:13.527Z,9.41
2023-02-01T12:46:13.608Z,9.34
2023-02-01T12:47:13.534Z,9.32
2023-02-01T12:48:13.517Z,9.32
2023-02-01T12:49:13.506Z,9.25
2023-02-01T12:50:13.541Z,9.18
2023-02-01T12:51:13.468Z,9.21
2023-02-01T12:52:13.442Z,9.13
2023-02-01T12:53:13.440Z,9.19
2023-02-01T12:54:13.590Z,9.13
2023-02-01T12:55:13.417Z,8.99
2023-02-01T12:56:13.450Z,8.94
2023-02-01T12:57:13.403Z,9.00
2023-02-01T12:58:13.376Z,8.97
2023-02-01T12:59:13.435Z,8.92
2023-02-01T13:00:13.444Z,8.94
2023-02-01T13:01:13.417Z,8.89
2023-02-01T13:02:13.389Z,8.95
2023-02-01T13:03:13.367Z,8.89
2023-02-01T13:04:13.319Z,8.87
2023-02-01T13:05:13.415Z,8.91
2023-02-01T13:06:13.319Z,8.82
2023-02-01T13:07:13.706Z,8.81
2023-02-01T13:08:13.290Z,8.78
2023-02-01T13:09:13.259Z,8.74
2023-02-01T13:10:14.145Z,8.69
2023-02-01T13:11:13.313Z,8.81
2023-02-01T13:12:13.334Z,8.73
2023-02-01T13:13:13.207Z,8.79
2023-02-01T13:14:13.200Z,8.64
2023-02-01T13:15:13.187Z,8.78
2023-02-01T13:16:13.184Z,8.58
2023-02-01T13:17:13.155Z,8.64
2023-02-01T13:18:13.181Z,8.67
2023-02-01T13:19:13.182Z,8.66
2023-02-01T13:20:13.165Z,8.53
2023-02-01T13:21:13.125Z,8.51
2023-02-01T13:22:13.105Z,8.56
2023-02-01T13:23:14.039Z,8.52
2023-02-01T13:24:13.132Z,8.48
2023-02-01T13:25:30.084Z,8.45
2023-02-01T13:26:13.074Z,8.44